createdAt,value
2016-01-15T00:00:55.915Z,982.93
2016-01-15T00:01:55.933Z,982.91
2016-01-15T00:02:55.936Z,982.92
2016-01-15T00:04:55.954Z,982.98
2016-01-15T00:05:55.972Z,982.95
2016-01-15T00:06:55.991Z,983
2016-01-15T00:07:55.994Z,982.96
2016-01-15T00:08:56.012Z,983.02
2016-01-15T00:09:56.014Z,982.97
2016-01-15T00:10:56.002Z,983
2016-01-15T00:11:56.019Z,982.95
2016-01-15T00:12:56.223Z,983.01
2016-01-15T00:13:56.035Z,983
2016-01-15T00:14:56.241Z,983.02
2016-01-15T00:15:56.040Z,983.06
2016-01-15T00:16:56.278Z,983.06
2016-01-15T00:17:56.077Z,983.07
2016-01-15T00:18:56.065Z,983.05
2016-01-15T00:19:56.083Z,983.1
2016-01-15T00:20:56.117Z,983.12
2016-01-15T00:22:56.123Z,983.09
2016-01-15T00:23:56.329Z,983.14
2016-01-15T00:24:56.129Z,983.09
2016-01-15T00:25:56.132Z,983.12
2016-01-15T00:27:56.137Z,983.12
2016-01-15T00:28:56.170Z,983.13
2016-01-15T00:29:56.173Z,983.14
2016-01-15T00:30:56.379Z,983.11
2016-01-15T00:31:56.210Z,983.11
2016-01-15T00:32:56.191Z,983.1
2016-01-15T00:33:56.209Z,983.11
2016-01-15T00:34:56.243Z,983.11
2016-01-15T00:35:56.210Z,983.12
2016-01-15T00:36:56.230Z,983.09
2016-01-15T00:37:56.232Z,983.08
2016-01-15T00:38:56.266Z,983.07
2016-01-15T00:39:56.268Z,983.06
2016-01-15T00:40:56.272Z,983.06
2016-01-15T00:41:56.274Z,983.07
2016-01-15T00:42:56.308Z,983.07
2016-01-15T00:43:56.498Z,983.09
2016-01-15T00:44:56.298Z,983.1
2016-01-15T00:45:56.316Z,983.13
2016-01-15T00:46:56.351Z,983.13
2016-01-15T00:47:56.321Z,983.14
2016-01-15T00:48:56.763Z,983.09
2016-01-15T00:50:56.546Z,983.06
2016-01-15T00:51:56.581Z,983.03
2016-01-15T00:52:56.365Z,983.02
2016-01-15T00:53:56.383Z,983.02
2016-01-15T00:54:56.401Z,983.07
2016-01-15T00:55:56.388Z,983.11
2016-01-15T00:57:56.410Z,983.1
2016-01-15T00:58:56.413Z,983.1
2016-01-15T00:59:56.446Z,983.08
2016-01-15T01:00:56.449Z,983.07
2016-01-15T01:01:56.452Z,983.06
2016-01-15T01:03:56.487Z,983.02
2016-01-15T01:04:56.912Z,983.03
2016-01-15T01:05:56.498Z,983.05
2016-01-15T01:06:56.486Z,983.01
2016-01-15T01:07:56.520Z,983.02
2016-01-15T01:10:56.528Z,983.03
2016-01-15T01:11:56.536Z,983.01
2016-01-15T01:12:56.570Z,982.99
2016-01-15T01:13:56.572Z,982.99
2016-01-15T01:14:56.559Z,983.01
2016-01-15T01:15:56.578Z,983.02
2016-01-15T01:16:56.581Z,983.05
2016-01-15T01:17:56.599Z,983.02
2016-01-15T01:18:56.603Z,982.98
2016-01-15T01:19:56.605Z,982.99
2016-01-15T01:20:56.608Z,983.03
2016-01-15T01:21:59.047Z,983.01
2016-01-15T01:22:56.629Z,982.97
2016-01-15T01:23:56.663Z,982.97
2016-01-15T01:24:56.650Z,983
2016-01-15T01:25:56.668Z,982.98
2016-01-15T01:26:56.671Z,982.99
2016-01-15T01:27:56.674Z,983
2016-01-15T01:28:56.692Z,982.99
2016-01-15T01:29:56.694Z,983
2016-01-15T01:30:56.697Z,982.95
2016-01-15T01:31:56.731Z,982.91
2016-01-15T01:32:56.733Z,982.89
2016-01-15T01:33:56.736Z,982.89
2016-01-15T01:34:56.739Z,982.9
2016-01-15T01:35:56.774Z,982.88
2016-01-15T01:36:56.761Z,982.9
2016-01-15T01:38:56.763Z,982.94
2016-01-15T01:39:56.985Z,982.96
2016-01-15T01:40:56.800Z,982.99
2016-01-15T01:41:56.803Z,983
2016-01-15T01:42:56.805Z,983
2016-01-15T01:43:57.011Z,983.01
2016-01-15T01:44:56.843Z,982.96
2016-01-15T01:45:56.829Z,982.95
2016-01-15T01:46:56.848Z,982.91
2016-01-15T01:47:56.866Z,982.92
2016-01-15T01:48:56.869Z,982.92
2016-01-15T01:49:56.888Z,982.87
2016-01-15T01:51:56.892Z,982.82
2016-01-15T01:52:56.895Z,982.86
2016-01-15T01:53:56.913Z,982.83
2016-01-15T01:54:56.916Z,982.78
2016-01-15T01:55:56.919Z,982.81
2016-01-15T01:56:56.937Z,982.83
2016-01-15T01:57:56.940Z,982.8
2016-01-15T01:58:57.364Z,982.79
2016-01-15T01:59:56.961Z,982.76
2016-01-15T02:00:56.964Z,982.75
2016-01-15T02:01:57.748Z,982.79
2016-01-15T02:02:56.985Z,982.75
2016-01-15T02:03:57.004Z,982.75
2016-01-15T02:04:56.990Z,982.76
2016-01-15T02:05:56.994Z,982.76
2016-01-15T02:06:57.012Z,982.78
2016-01-15T02:07:57.031Z,982.76
2016-01-15T02:08:57.033Z,982.74
2016-01-15T02:09:57.254Z,982.75
2016-01-15T02:10:57.054Z,982.75
2016-01-15T02:11:57.260Z,982.7
2016-01-15T02:13:57.094Z,982.72
2016-01-15T02:14:57.081Z,982.74
2016-01-15T02:15:57.099Z,982.76
2016-01-15T02:16:57.118Z,982.74
2016-01-15T02:17:57.309Z,982.77
2016-01-15T02:18:57.343Z,982.76
2016-01-15T02:19:57.126Z,982.76
2016-01-15T02:20:57.145Z,982.78
2016-01-15T02:21:57.131Z,982.78
2016-01-15T02:22:57.165Z,982.77
2016-01-15T02:23:57.153Z,982.72
2016-01-15T02:24:57.390Z,982.7
2016-01-15T02:25:57.174Z,982.7
2016-01-15T02:26:57.193Z,982.71
2016-01-15T02:27:57.179Z,982.7
2016-01-15T02:28:57.198Z,982.68
2016-01-15T02:29:57.216Z,982.71
2016-01-15T02:30:57.219Z,982.68
2016-01-15T02:31:57.221Z,982.67
2016-01-15T02:32:57.256Z,982.66
2016-01-15T02:33:57.242Z,982.62
2016-01-15T02:34:57.261Z,982.65
2016-01-15T02:35:57.263Z,982.61
2016-01-15T02:36:57.266Z,982.66
2016-01-15T02:37:57.503Z,982.66
2016-01-15T02:38:57.271Z,982.64
2016-01-15T02:39:57.289Z,982.66
2016-01-15T02:40:57.308Z,982.59
2016-01-15T02:41:57.311Z,982.59
2016-01-15T02:42:57.313Z,982.62
2016-01-15T02:43:57.316Z,982.59
2016-01-15T02:44:57.334Z,982.58
2016-01-15T02:45:57.352Z,982.59
2016-01-15T02:46:57.340Z,982.61
2016-01-15T02:47:57.358Z,982.61
2016-01-15T02:48:57.361Z,982.58
2016-01-15T02:49:57.379Z,982.61
2016-01-15T02:50:57.382Z,982.6
2016-01-15T02:51:57.415Z,982.6
2016-01-15T02:52:57.403Z,982.59
2016-01-15T02:53:57.420Z,982.57
2016-01-15T02:54:57.440Z,982.56
2016-01-15T02:55:57.442Z,982.52
2016-01-15T02:56:57.445Z,982.51
2016-01-15T02:57:57.447Z,982.53
2016-01-15T02:58:57.450Z,982.53
2016-01-15T02:59:57.656Z,982.54
2016-01-15T03:00:57.468Z,982.54
2016-01-15T03:01:57.674Z,982.51
2016-01-15T03:02:57.473Z,982.49
2016-01-15T03:03:57.492Z,982.52
2016-01-15T03:04:57.697Z,982.49
2016-01-15T03:05:57.513Z,982.5
2016-01-15T03:06:57.516Z,982.47
2016-01-15T03:07:57.534Z,982.48
2016-01-15T03:08:57.537Z,982.46
2016-01-15T03:09:57.540Z,982.45
2016-01-15T03:10:57.542Z,982.47
2016-01-15T03:11:57.561Z,982.47
2016-01-15T03:12:57.579Z,982.4
2016-01-15T03:13:57.597Z,982.43
2016-01-15T03:14:57.585Z,982.45
2016-01-15T03:15:57.588Z,982.5
2016-01-15T03:16:57.605Z,982.47
2016-01-15T03:17:57.608Z,982.44
2016-01-15T03:18:57.627Z,982.45
2016-01-15T03:19:57.629Z,982.46
2016-01-15T03:20:57.632Z,982.44
2016-01-15T03:21:57.634Z,982.49
2016-01-15T03:22:57.637Z,982.49
2016-01-15T03:23:57.654Z,982.46
2016-01-15T03:24:57.657Z,982.47
2016-01-15T03:25:57.677Z,982.45
2016-01-15T03:26:57.679Z,982.44
2016-01-15T03:27:57.698Z,982.45
2016-01-15T03:28:57.701Z,982.48
2016-01-15T03:29:57.703Z,982.45
2016-01-15T03:30:57.706Z,982.46
2016-01-15T03:31:57.723Z,982.45
2016-01-15T03:32:57.742Z,982.43
2016-01-15T03:34:57.748Z,982.42
2016-01-15T03:35:57.953Z,982.42
2016-01-15T03:36:57.753Z,982.45
2016-01-15T03:37:57.772Z,982.4
2016-01-15T03:38:57.775Z,982.39
2016-01-15T03:39:57.778Z,982.4
2016-01-15T03:41:57.798Z,982.39
2016-01-15T03:42:57.801Z,982.34
2016-01-15T03:43:57.835Z,982.33
2016-01-15T03:44:57.837Z,982.33
2016-01-15T03:45:58.059Z,982.33
2016-01-15T03:46:57.842Z,982.31
2016-01-15T03:47:57.861Z,982.31
2016-01-15T03:48:57.864Z,982.28
2016-01-15T03:49:57.898Z,982.3
2016-01-15T03:50:57.885Z,982.3
2016-01-15T03:51:57.888Z,982.26
2016-01-15T03:52:57.906Z,982.3
2016-01-15T03:53:57.909Z,982.31
2016-01-15T03:54:58.131Z,982.27
2016-01-15T03:55:58.149Z,982.28
2016-01-15T03:56:57.933Z,982.26
2016-01-15T03:57:57.967Z,982.27
2016-01-15T03:58:57.954Z,982.24
2016-01-15T03:59:57.988Z,982.23
2016-01-15T04:00:57.975Z,982.22
2016-01-15T04:01:57.963Z,982.2
2016-01-15T04:02:57.965Z,982.21
2016-01-15T04:03:57.983Z,982.2
2016-01-15T04:04:58.016Z,982.18
2016-01-15T04:05:58.004Z,982.19
2016-01-15T04:06:58.007Z,982.21
2016-01-15T04:07:58.010Z,982.18
2016-01-15T04:08:58.028Z,982.16
2016-01-15T04:09:58.047Z,982.19
2016-01-15T04:10:58.034Z,982.2
2016-01-15T04:11:58.052Z,982.17
2016-01-15T04:12:58.055Z,982.22
2016-01-15T04:13:58.074Z,982.2
2016-01-15T04:14:58.091Z,982.18
2016-01-15T04:15:58.079Z,982.2
2016-01-15T04:16:58.097Z,982.26
2016-01-15T04:17:58.115Z,982.26
2016-01-15T04:18:58.101Z,982.25
2016-01-15T04:19:58.121Z,982.26
2016-01-15T04:21:58.126Z,982.28
2016-01-15T04:22:58.129Z,982.28
2016-01-15T04:23:58.162Z,982.27
2016-01-15T04:24:58.165Z,982.3
2016-01-15T04:25:58.168Z,982.33
2016-01-15T04:26:58.171Z,982.28
2016-01-15T04:27:58.205Z,982.26
2016-01-15T04:28:58.192Z,982.29
2016-01-15T04:29:58.226Z,982.27
2016-01-15T04:30:58.212Z,982.25
2016-01-15T04:32:58.231Z,982.21
2016-01-15T04:33:58.234Z,982.23
2016-01-15T04:34:58.425Z,982.27
2016-01-15T04:35:58.239Z,982.23
2016-01-15T04:36:58.461Z,982.21
2016-01-15T04:38:58.263Z,982.22
2016-01-15T04:39:58.267Z,982.23
2016-01-15T04:40:58.284Z,982.23
2016-01-15T04:41:58.303Z,982.22
2016-01-15T04:42:58.305Z,982.29
2016-01-15T04:43:58.308Z,982.28
2016-01-15T04:44:58.327Z,982.3
2016-01-15T04:45:58.330Z,982.3
2016-01-15T04:46:58.536Z,982.31
2016-01-15T04:47:58.366Z,982.28
2016-01-15T04:48:58.337Z,982.28
2016-01-15T04:49:58.372Z,982.31
2016-01-15T04:50:58.594Z,982.3
2016-01-15T04:51:58.377Z,982.34
2016-01-15T04:52:58.380Z,982.3
2016-01-15T04:53:58.382Z,982.33
2016-01-15T04:54:58.385Z,982.33
2016-01-15T04:55:58.403Z,982.35
2016-01-15T04:56:58.438Z,982.36
2016-01-15T04:57:58.409Z,982.34
2016-01-15T04:58:58.428Z,982.35
2016-01-15T05:00:58.855Z,982.34
2016-01-15T05:02:58.454Z,982.32
2016-01-15T05:04:59.913Z,982.35
2016-01-15T05:05:58.494Z,982.36
2016-01-15T05:08:58.502Z,982.4
2016-01-15T05:10:59.133Z,982.38
2016-01-15T05:11:58.744Z,982.38
2016-01-15T05:13:58.765Z,982.34
2016-01-15T05:16:58.586Z,982.25
2016-01-15T05:18:59.013Z,982.22
2016-01-15T05:19:58.594Z,982.22
2016-01-15T05:21:07.019Z,982.23
2016-01-15T05:22:07.179Z,982.24
2016-01-15T05:23:06.994Z,982.23
2016-01-15T05:24:07.027Z,982.19
2016-01-15T05:26:07.360Z,982.23
2016-01-15T05:27:07.176Z,982.25
2016-01-15T05:29:28.838Z,982.25
2016-01-15T05:30:28.215Z,982.23
2016-01-15T05:31:29.641Z,982.28
2016-01-15T05:32:28.237Z,982.24
2016-01-15T05:33:28.239Z,982.24
2016-01-15T05:34:28.257Z,982.28
2016-01-15T05:35:28.464Z,982.24
2016-01-15T05:38:28.894Z,982.2
2016-01-15T05:39:28.490Z,982.24
2016-01-15T05:40:28.493Z,982.2
2016-01-15T05:41:28.495Z,982.22
2016-01-15T05:42:28.514Z,982.21
2016-01-15T05:44:28.332Z,982.22
2016-01-15T05:46:28.337Z,982.24
2016-01-15T05:48:47.000Z,982.25
2016-01-15T05:49:47.003Z,982.22
2016-01-15T05:50:47.817Z,982.23
2016-01-15T05:51:47.242Z,982.23
2016-01-15T05:54:47.266Z,982.27
2016-01-15T05:55:47.659Z,982.29
2016-01-15T05:58:57.777Z,982.28
2016-01-15T05:59:56.358Z,982.27
2016-01-15T06:00:56.376Z,982.29
2016-01-15T06:01:57.800Z,982.28
2016-01-15T06:02:56.381Z,982.3
2016-01-15T06:03:56.400Z,982.32
2016-01-15T06:04:56.606Z,982.32
2016-01-15T06:07:59.708Z,982.29
2016-01-15T06:12:22.938Z,982.26
2016-01-15T06:13:22.721Z,982.26
2016-01-15T06:15:32.617Z,982.27
2016-01-15T06:16:32.807Z,982.26
2016-01-15T06:17:32.811Z,982.24
2016-01-15T06:18:33.235Z,982.26
2016-01-15T06:19:32.847Z,982.32
2016-01-15T06:20:32.647Z,982.33
2016-01-15T06:21:32.666Z,982.32
2016-01-15T06:23:33.093Z,982.39
2016-01-15T06:24:32.908Z,982.37
2016-01-15T06:27:33.322Z,982.37
2016-01-15T06:34:45.280Z,982.45
2016-01-15T06:36:54.363Z,982.51
2016-01-15T06:37:54.771Z,982.42
2016-01-15T06:38:54.166Z,982.44
2016-01-15T06:39:54.199Z,982.47
2016-01-15T06:41:54.407Z,982.43
2016-01-15T06:45:54.232Z,982.36
2016-01-15T06:46:54.437Z,982.37
2016-01-15T06:47:54.877Z,982.34
2016-01-15T06:49:54.476Z,982.33
2016-01-15T06:51:54.298Z,982.34
2016-01-15T06:52:54.301Z,982.35
2016-01-15T06:53:54.522Z,982.33
2016-01-15T06:54:54.322Z,982.32
2016-01-15T06:59:07.566Z,982.3
2016-01-15T07:00:07.586Z,982.3
2016-01-15T07:01:07.604Z,982.29
2016-01-15T07:04:09.535Z,982.23
2016-01-15T07:05:09.553Z,982.27
2016-01-15T07:08:12.422Z,982.25
2016-01-15T07:10:09.802Z,982.24
2016-01-15T07:11:09.600Z,982.24
2016-01-15T07:12:09.822Z,982.25
2016-01-15T07:14:19.688Z,982.31
2016-01-15T07:15:19.706Z,982.3
2016-01-15T07:18:35.340Z,982.38
2016-01-15T07:20:34.751Z,982.42
2016-01-15T07:23:48.822Z,982.45
2016-01-15T07:25:48.624Z,982.44
2016-01-15T07:26:48.627Z,982.46
2016-01-15T07:28:49.257Z,982.43
2016-01-15T07:29:48.666Z,982.44
2016-01-15T07:30:48.669Z,982.41
2016-01-15T07:31:49.702Z,982.46
2016-01-15T07:32:49.096Z,982.46
2016-01-15T07:33:50.146Z,982.47
2016-01-15T07:36:57.667Z,982.36
2016-01-15T07:37:57.465Z,982.36
2016-01-15T07:39:57.481Z,982.41
2016-01-15T07:41:10.234Z,982.43
2016-01-15T07:41:57.705Z,982.4
2016-01-15T07:44:28.102Z,982.44
2016-01-15T07:45:08.901Z,982.38
2016-01-15T07:48:17.441Z,982.4
2016-01-15T07:50:31.539Z,982.42
2016-01-15T07:51:31.730Z,982.42
2016-01-15T07:52:32.139Z,982.39
2016-01-15T07:53:31.751Z,982.48
2016-01-15T07:56:31.562Z,982.46
2016-01-15T07:57:31.965Z,982.51
2016-01-15T07:59:32.376Z,982.53
2016-01-15T08:01:44.092Z,982.49
2016-01-15T08:03:49.934Z,982.52
2016-01-15T08:04:50.153Z,982.51
2016-01-15T08:05:50.577Z,982.49
2016-01-15T08:09:51.428Z,982.61
2016-01-15T08:10:50.414Z,982.56
2016-01-15T08:11:50.822Z,982.6
2016-01-15T08:13:50.030Z,982.59
2016-01-15T08:15:50.487Z,982.58
2016-01-15T08:17:50.680Z,982.55
2016-01-15T08:18:50.291Z,982.62
2016-01-15T08:20:02.935Z,982.63
2016-01-15T08:22:03.362Z,982.65
2016-01-15T08:24:29.184Z,982.69
2016-01-15T08:28:36.132Z,982.69
2016-01-15T08:32:48.408Z,982.7
2016-01-15T08:35:48.870Z,982.7
2016-01-15T08:36:48.451Z,982.72
2016-01-15T08:37:48.657Z,982.73
2016-01-15T08:38:49.096Z,982.75
2016-01-15T08:42:48.593Z,982.77
2016-01-15T08:46:01.756Z,982.76
2016-01-15T08:46:48.556Z,982.83
2016-01-15T08:47:48.856Z,982.84
2016-01-15T08:49:48.596Z,982.84
2016-01-15T08:51:55.085Z,982.86
2016-01-15T08:52:52.744Z,982.87
2016-01-15T08:54:50.516Z,982.86
2016-01-15T08:56:04.366Z,982.87
2016-01-15T08:58:04.871Z,982.88
2016-01-15T09:00:26.908Z,982.92
2016-01-15T09:01:27.177Z,982.86
2016-01-15T09:02:30.429Z,982.85
2016-01-15T09:03:27.807Z,982.87
2016-01-15T09:04:27.387Z,982.88
2016-01-15T09:06:27.299Z,982.86
2016-01-15T09:12:40.518Z,982.92
2016-01-15T09:13:39.928Z,982.89
2016-01-15T09:18:39.145Z,982.88
2016-01-15T09:22:04.419Z,982.87
2016-01-15T09:25:04.661Z,982.92
2016-01-15T09:26:04.461Z,982.86
2016-01-15T09:27:04.682Z,982.88
2016-01-15T09:29:04.687Z,982.91
2016-01-15T09:30:05.097Z,982.86
2016-01-15T09:31:04.709Z,982.85
2016-01-15T09:34:04.545Z,982.85
2016-01-15T09:35:04.548Z,982.83
2016-01-15T09:38:15.290Z,982.88
2016-01-15T09:39:14.871Z,982.88
2016-01-15T09:40:14.905Z,982.88
2016-01-15T09:41:15.095Z,982.93
2016-01-15T09:45:37.934Z,983.03
2016-01-15T09:47:38.143Z,983.03
2016-01-15T09:49:47.089Z,983.03
2016-01-15T09:50:47.044Z,983.02
2016-01-15T09:52:47.066Z,983.02
2016-01-15T09:53:47.271Z,982.97
2016-01-15T09:54:47.071Z,983.02
2016-01-15T09:57:53.782Z,982.97
2016-01-15T10:03:06.374Z,982.95
2016-01-15T10:05:10.707Z,982.97
2016-01-15T10:06:09.507Z,982.98
2016-01-15T10:10:34.581Z,982.96
2016-01-15T10:11:31.333Z,982.96
2016-01-15T10:14:41.420Z,982.94
2016-01-15T10:15:41.032Z,982.94
2016-01-15T10:16:41.237Z,982.97
2016-01-15T10:17:41.053Z,982.92
2016-01-15T10:18:41.056Z,982.9
2016-01-15T10:20:41.279Z,982.86
2016-01-15T10:22:43.128Z,982.8
2016-01-15T10:23:42.944Z,982.84
2016-01-15T10:27:43.580Z,982.82
2016-01-15T10:28:42.989Z,982.81
2016-01-15T10:30:53.103Z,982.83
2016-01-15T10:32:52.906Z,982.83
2016-01-15T10:33:52.925Z,982.83
2016-01-15T10:34:53.193Z,982.83
2016-01-15T10:36:53.698Z,982.83
2016-01-15T10:37:52.966Z,982.82
2016-01-15T10:38:53.001Z,982.81
2016-01-15T10:39:53.144Z,982.81
2016-01-15T10:40:53.069Z,982.8
2016-01-15T10:43:53.046Z,982.81
2016-01-15T10:45:53.176Z,982.84
2016-01-15T10:46:53.069Z,982.84
2016-01-15T10:47:53.541Z,982.85
2016-01-15T10:48:53.685Z,982.83
2016-01-15T10:49:53.546Z,982.86
2016-01-15T10:50:53.830Z,982.87
2016-01-15T10:51:53.114Z,982.9
2016-01-15T10:52:56.163Z,982.93
2016-01-15T10:54:11.511Z,982.95
2016-01-15T10:55:12.185Z,982.93
2016-01-15T10:57:23.222Z,982.93
2016-01-15T10:58:21.693Z,982.96
2016-01-15T11:04:07.507Z,983.01
2016-01-15T11:05:07.385Z,983.01
2016-01-15T11:06:07.482Z,982.98
2016-01-15T11:07:10.469Z,982.95
2016-01-15T11:08:07.627Z,982.99
2016-01-15T11:09:07.536Z,982.98
2016-01-15T11:10:07.789Z,982.99
2016-01-15T11:11:07.594Z,983
2016-01-15T11:14:07.555Z,983
2016-01-15T11:17:20.391Z,982.99
2016-01-15T11:19:07.851Z,983.02
2016-01-15T11:20:07.744Z,983.01
2016-01-15T11:24:07.643Z,982.97
2016-01-15T11:26:20.010Z,982.99
2016-01-15T11:28:18.607Z,982.99
2016-01-15T11:29:21.454Z,983
2016-01-15T11:30:18.472Z,983.01
2016-01-15T11:31:18.428Z,983.02
2016-01-15T11:36:27.926Z,983.07
2016-01-15T11:37:46.776Z,983.06
2016-01-15T11:43:32.741Z,983.08
2016-01-15T11:45:32.373Z,983.08
2016-01-15T11:46:43.203Z,983.11
2016-01-15T11:47:42.050Z,983.13
2016-01-15T11:48:54.759Z,983.08
2016-01-15T11:49:50.074Z,983.01
2016-01-15T11:53:22.270Z,983.07
2016-01-15T11:54:22.148Z,983.06
2016-01-15T11:55:22.290Z,983.03
2016-01-15T12:06:11.716Z,983.04
2016-01-15T12:07:11.719Z,983.05
2016-01-15T12:08:11.737Z,983.07
2016-01-15T12:10:12.789Z,983.05
2016-01-15T12:11:12.824Z,983.09
2016-01-15T12:17:07.930Z,983.11
2016-01-15T12:18:10.980Z,983.1
2016-01-15T12:21:09.379Z,983.11
2016-01-15T12:22:10.210Z,983.13
2016-01-15T12:23:10.979Z,983.11
2016-01-15T12:24:11.090Z,983.19
2016-01-15T12:28:20.743Z,983.19
2016-01-15T12:29:23.385Z,983.18
2016-01-15T12:30:22.310Z,983.21
2016-01-15T12:31:26.766Z,983.19
2016-01-15T12:32:20.409Z,983.21
2016-01-15T12:33:20.412Z,983.19
2016-01-15T12:38:34.113Z,983.24
2016-01-15T12:40:33.838Z,983.29
2016-01-15T12:42:35.562Z,983.32
2016-01-15T12:45:14.273Z,983.29
2016-01-15T12:48:13.218Z,983.31
2016-01-15T12:49:13.987Z,983.3
2016-01-15T12:56:22.460Z,983.32
2016-01-15T12:57:25.197Z,983.37
2016-01-15T12:59:22.171Z,983.37
2016-01-15T13:00:22.581Z,983.36
2016-01-15T13:06:31.925Z,983.38
2016-01-15T13:07:31.943Z,983.42
2016-01-15T13:10:39.170Z,983.43
2016-01-15T13:12:39.738Z,983.44
2016-01-15T13:13:39.538Z,983.46
2016-01-15T13:15:40.496Z,983.54
2016-01-15T13:16:39.765Z,983.52
2016-01-15T13:17:39.908Z,983.54
2016-01-15T13:18:39.723Z,983.53
2016-01-15T13:23:06.797Z,983.64
2016-01-15T13:26:33.025Z,983.71
2016-01-15T13:27:32.542Z,983.68
2016-01-15T13:32:33.009Z,983.72
2016-01-15T13:35:32.814Z,983.77
2016-01-15T13:37:32.757Z,983.77
2016-01-15T13:40:41.812Z,983.84
2016-01-15T13:41:42.033Z,983.83
2016-01-15T13:43:41.976Z,983.89
2016-01-15T13:45:42.371Z,983.89
2016-01-15T13:46:42.140Z,983.91
2016-01-15T13:47:42.799Z,983.89
2016-01-15T13:48:41.879Z,983.96
2016-01-15T13:49:42.726Z,983.9
2016-01-15T13:50:41.917Z,983.92
2016-01-15T13:53:42.425Z,983.97
2016-01-15T13:54:42.021Z,983.99
2016-01-15T13:56:42.183Z,984.03
2016-01-15T13:58:42.111Z,984.04
2016-01-15T13:59:42.050Z,984.05
2016-01-15T14:03:51.686Z,984.11
2016-01-15T14:04:51.705Z,984.17
2016-01-15T14:09:19.922Z,984.11
2016-01-15T14:11:44.317Z,984.15
2016-01-15T14:13:42.869Z,984.1
2016-01-15T14:15:42.907Z,984.06
2016-01-15T14:16:43.128Z,984.13
2016-01-15T14:18:44.274Z,984.12
2016-01-15T14:19:45.089Z,984.13
2016-01-15T14:21:53.360Z,984.12
2016-01-15T14:22:54.096Z,984.11
2016-01-15T14:24:53.384Z,984.15
2016-01-15T14:26:53.937Z,984.14
2016-01-15T14:29:10.363Z,984.16
2016-01-15T14:31:04.587Z,984.13
2016-01-15T14:32:04.121Z,984.16
2016-01-15T14:34:13.690Z,984.17
2016-01-15T14:36:27.260Z,984.21
2016-01-15T14:37:26.950Z,984.24
2016-01-15T14:38:30.015Z,984.24
2016-01-15T14:43:01.339Z,984.33
2016-01-15T14:45:17.375Z,984.34
2016-01-15T14:46:30.833Z,984.35
2016-01-15T14:47:32.477Z,984.37
2016-01-15T14:48:31.480Z,984.38
2016-01-15T14:49:30.858Z,984.4
2016-01-15T14:53:02.944Z,984.43
2016-01-15T14:54:25.230Z,984.46
2016-01-15T14:55:19.402Z,984.46
2016-01-15T14:57:17.783Z,984.5
2016-01-15T14:58:20.817Z,984.52
2016-01-15T14:59:18.007Z,984.54
2016-01-15T15:01:17.810Z,984.56
2016-01-15T15:08:53.487Z,984.72
2016-01-15T15:10:54.509Z,984.72
2016-01-15T15:11:56.073Z,984.72
2016-01-15T15:12:56.076Z,984.74
2016-01-15T15:13:56.282Z,984.75
2016-01-15T15:14:56.098Z,984.74
2016-01-15T15:16:56.743Z,984.79
2016-01-15T15:19:23.671Z,984.84
2016-01-15T15:21:23.286Z,984.82
2016-01-15T15:23:45.123Z,984.85
2016-01-15T15:24:45.547Z,984.86
2016-01-15T15:25:45.706Z,984.87
2016-01-15T15:26:46.333Z,984.87
2016-01-15T15:28:45.773Z,984.89
2016-01-15T15:29:54.278Z,984.88
2016-01-15T15:30:54.329Z,984.87
2016-01-15T15:31:54.503Z,984.89
2016-01-15T15:32:54.319Z,984.88
2016-01-15T15:36:10.577Z,984.86
2016-01-15T15:37:04.502Z,984.89
2016-01-15T15:39:13.991Z,984.88
2016-01-15T15:40:14.010Z,984.91
2016-01-15T15:41:13.841Z,984.96
2016-01-15T15:42:14.672Z,984.94
2016-01-15T15:44:15.958Z,984.96
2016-01-15T15:45:15.336Z,985.01
2016-01-15T15:47:15.357Z,985.02
2016-01-15T15:48:15.375Z,985.06
2016-01-15T15:49:15.377Z,985.07
2016-01-15T15:50:15.380Z,985.09
2016-01-15T15:51:15.399Z,985.11
2016-01-15T15:52:15.433Z,985.11
2016-01-15T15:54:15.438Z,985.13
2016-01-15T15:55:15.440Z,985.13
2016-01-15T15:57:15.462Z,985.12
2016-01-15T15:58:15.465Z,985.13
2016-01-15T15:59:15.483Z,985.14
2016-01-15T16:00:15.485Z,985.15
2016-01-15T16:01:15.488Z,985.19
2016-01-15T16:02:15.522Z,985.18
2016-01-15T16:03:15.526Z,985.18
2016-01-15T16:04:15.533Z,985.18
2016-01-15T16:05:15.551Z,985.15
2016-01-15T16:06:15.538Z,985.14
2016-01-15T16:07:15.557Z,985.13
2016-01-15T16:08:15.559Z,985.18
2016-01-15T16:09:15.578Z,985.22
2016-01-15T16:10:15.595Z,985.16
2016-01-15T16:11:15.598Z,985.2
2016-01-15T16:12:15.600Z,985.19
2016-01-15T16:13:15.620Z,985.23
2016-01-15T16:14:15.622Z,985.24
2016-01-15T16:15:15.641Z,985.29
2016-01-15T16:16:15.643Z,985.28
2016-01-15T16:17:15.647Z,985.29
2016-01-15T16:18:15.899Z,985.34
2016-01-15T16:19:15.902Z,985.38
2016-01-15T16:20:15.685Z,985.34
2016-01-15T16:22:15.719Z,985.37
2016-01-15T16:24:15.725Z,985.42
2016-01-15T16:25:15.758Z,985.41
2016-01-15T16:26:15.730Z,985.48
2016-01-15T16:27:15.763Z,985.51
2016-01-15T16:28:15.782Z,985.51
2016-01-15T16:29:15.988Z,985.51
2016-01-15T16:30:15.771Z,985.54
2016-01-15T16:31:15.791Z,985.53
2016-01-15T16:32:15.809Z,985.55
2016-01-15T16:33:15.812Z,985.53
2016-01-15T16:34:15.815Z,985.59
2016-01-15T16:35:16.051Z,985.54
2016-01-15T16:36:15.835Z,985.6
2016-01-15T16:37:15.854Z,985.61
2016-01-15T16:38:16.090Z,985.63
2016-01-15T16:39:15.875Z,985.64
2016-01-15T16:40:15.878Z,985.65
2016-01-15T16:41:15.895Z,985.65
2016-01-15T16:42:15.914Z,985.71
2016-01-15T16:43:15.901Z,985.69
2016-01-15T16:44:15.920Z,985.7
2016-01-15T16:45:15.923Z,985.75
2016-01-15T16:46:15.925Z,985.75
2016-01-15T16:47:15.942Z,985.75
2016-01-15T16:48:15.977Z,985.77
2016-01-15T16:49:15.980Z,985.77
2016-01-15T16:50:15.983Z,985.77
2016-01-15T16:51:16.001Z,985.79
2016-01-15T16:52:16.004Z,985.76
2016-01-15T16:53:16.006Z,985.77
2016-01-15T16:54:16.009Z,985.76
2016-01-15T16:55:16.044Z,985.79
2016-01-15T16:56:16.046Z,985.78
2016-01-15T16:57:16.033Z,985.81
2016-01-15T16:58:16.458Z,985.8
2016-01-15T16:59:16.055Z,985.77
2016-01-15T17:00:16.068Z,985.84
2016-01-15T17:01:16.070Z,985.85
2016-01-15T17:02:16.057Z,985.89
2016-01-15T17:03:16.043Z,985.87
2016-01-15T17:04:16.044Z,985.92
2016-01-15T17:05:16.034Z,985.92
2016-01-15T17:06:16.031Z,985.94
2016-01-15T17:07:16.060Z,985.94
2016-01-15T17:08:16.072Z,985.94
2016-01-15T17:09:16.054Z,985.97
2016-01-15T17:10:16.068Z,985.97
2016-01-15T17:11:16.069Z,985.97
2016-01-15T17:12:16.069Z,986.04
2016-01-15T17:13:16.086Z,986.07
2016-01-15T17:14:16.118Z,986.07
2016-01-15T17:15:16.104Z,986.04
2016-01-15T17:16:16.121Z,986.1
2016-01-15T17:18:16.125Z,986.13
2016-01-15T17:19:16.143Z,986.15
2016-01-15T17:21:16.148Z,986.11
2016-01-15T17:22:16.165Z,986.16
2016-01-15T17:23:16.183Z,986.15
2016-01-15T17:25:16.188Z,986.2
2016-01-15T17:26:16.191Z,986.21
2016-01-15T17:27:16.224Z,986.23
2016-01-15T17:28:16.228Z,986.25
2016-01-15T17:29:16.230Z,986.29
2016-01-15T17:30:16.249Z,986.29
2016-01-15T17:31:16.470Z,986.29
2016-01-15T17:32:16.282Z,986.33
2016-01-15T17:33:16.285Z,986.32
2016-01-15T17:34:16.273Z,986.31
2016-01-15T17:35:16.540Z,986.36
2016-01-15T17:36:16.309Z,986.38
2016-01-15T17:37:16.312Z,986.37
2016-01-15T17:38:16.330Z,986.42
2016-01-15T17:39:16.332Z,986.41
2016-01-15T17:40:16.335Z,986.41
2016-01-15T17:41:16.370Z,986.42
2016-01-15T17:42:16.357Z,986.43
2016-01-15T17:43:16.359Z,986.46
2016-01-15T17:44:16.393Z,986.47
2016-01-15T17:45:16.396Z,986.49
2016-01-15T17:46:16.602Z,986.5
2016-01-15T17:47:16.401Z,986.51
2016-01-15T17:48:16.419Z,986.55
2016-01-15T17:49:16.423Z,986.61
2016-01-15T17:50:16.442Z,986.62
2016-01-15T17:51:16.460Z,986.62
2016-01-15T17:52:16.463Z,986.62
2016-01-15T17:53:16.904Z,986.65